Terminal Aerodrome Forecast
Issued by NWS

Home | Current Version | Previous Version | Text Only | Print | Product List | Glossary On
Versions: 1 2 3 4 5 6 7 8 9 10 11 12 13 14 15 16 17 18 19 20 21 22 23 24 25 26 27
000
FTUS45 KSLC 190542
TAFEVW
TAF
KEVW 190542Z 1906/2006 22010KT P6SM BKN130 OVC200
     FM191000 22013G20KT P6SM SCT110 BKN150
     FM191600 24018G28KT P6SM BKN070 BKN150
     FM192100 24021G30KT P6SM VCSH SCT030 BKN050
     FM192300 26018G25KT 2SM -SN BR BKN010 OVC025
     FM200200 30011KT 1/2SM SN FZFG VV004=

USA.gov is the U.S. government's official web portal to all federal, state and local government web resources and services.